OAS9370 SKBO-SKCL
Flight info
| Callsign | OAS9370 |
|---|---|
| Flight time | 0h 33m |
| Altitude | 24000 |
| Route | KAMIS6A KAMIS W16 GIR R564 MANGA MANGA1B |
| Aircraft | B738/M-SDE2E3FGHIRWXY/LB1 |
Departure
| Time | 2026-04-23 01:08 |
|---|---|
| Airport | El Dorado International Airport (SKBO) |
Arrival
| Time | 2026-04-23 01:42 |
|---|---|
| Airport | Alfonso Bonilla Aragon International Airport (SKCL) |
| Time | Latitude | Longitude | Altitude | Speed | Heading |
|---|---|---|---|---|---|
| 2026-04-23 00:42 | 4.69882 | -74.14445 | 8365 ft | 0 kts | 226° |
| 2026-04-23 01:00 | 4.69883 | -74.14449 | 8365 ft | 1 kts | 269° |
| 2026-04-23 01:00 | 4.69901 | -74.14460 | 8365 ft | 5 kts | 327° |
| 2026-04-23 01:00 | 4.69948 | -74.14491 | 8365 ft | 11 kts | 327° |
| 2026-04-23 01:00 | 4.70009 | -74.14536 | 8365 ft | 11 kts | 315° |
| 2026-04-23 01:01 | 4.70061 | -74.14587 | 8365 ft | 10 kts | 315° |
| 2026-04-23 01:01 | 4.70114 | -74.14639 | 8365 ft | 11 kts | 316° |
| 2026-04-23 01:01 | 4.70147 | -74.14705 | 8365 ft | 12 kts | 243° |
| 2026-04-23 01:01 | 4.70077 | -74.14765 | 8365 ft | 15 kts | 217° |
| 2026-04-23 01:02 | 4.69990 | -74.14831 | 8365 ft | 17 kts | 217° |
| 2026-04-23 01:02 | 4.69890 | -74.14908 | 8365 ft | 19 kts | 217° |
| 2026-04-23 01:02 | 4.69885 | -74.15019 | 8365 ft | 19 kts | 306° |
| 2026-04-23 01:02 | 4.69968 | -74.15130 | 8365 ft | 21 kts | 307° |
| 2026-04-23 01:03 | 4.70055 | -74.15247 | 8365 ft | 22 kts | 307° |
| 2026-04-23 01:03 | 4.70149 | -74.15374 | 8364 ft | 23 kts | 307° |
| 2026-04-23 01:03 | 4.70249 | -74.15506 | 8364 ft | 24 kts | 307° |
| 2026-04-23 01:03 | 4.70346 | -74.15635 | 8364 ft | 23 kts | 307° |
| 2026-04-23 01:04 | 4.70444 | -74.15757 | 8364 ft | 22 kts | 308° |
| 2026-04-23 01:04 | 4.70539 | -74.15876 | 8364 ft | 21 kts | 308° |
| 2026-04-23 01:04 | 4.70712 | -74.16109 | 8365 ft | 20 kts | 307° |
| 2026-04-23 01:05 | 4.70795 | -74.16220 | 8365 ft | 20 kts | 307° |
| 2026-04-23 01:05 | 4.70876 | -74.16327 | 8365 ft | 19 kts | 307° |
| 2026-04-23 01:05 | 4.70955 | -74.16430 | 8365 ft | 18 kts | 307° |
| 2026-04-23 01:05 | 4.71031 | -74.16529 | 8365 ft | 18 kts | 308° |
| 2026-04-23 01:06 | 4.71105 | -74.16625 | 8365 ft | 17 kts | 308° |
| 2026-04-23 01:06 | 4.71175 | -74.16719 | 8365 ft | 16 kts | 305° |
| 2026-04-23 01:06 | 4.71174 | -74.16816 | 8364 ft | 16 kts | 219° |
| 2026-04-23 01:06 | 4.71091 | -74.16876 | 8362 ft | 15 kts | 214° |
| 2026-04-23 01:07 | 4.71012 | -74.16864 | 8362 ft | 2 kts | 127° |
| 2026-04-23 01:07 | 4.71007 | -74.16857 | 8362 ft | 6 kts | 127° |
| 2026-04-23 01:07 | 4.70851 | -74.16653 | 8362 ft | 71 kts | 127° |
| 2026-04-23 01:07 | 4.70420 | -74.16083 | 8363 ft | 133 kts | 127° |
| 2026-04-23 01:08 | 4.69751 | -74.15199 | 8373 ft | 183 kts | 127° |
| 2026-04-23 01:08 | 4.68946 | -74.14146 | 8953 ft | 185 kts | 128° |
| 2026-04-23 01:08 | 4.68042 | -74.13262 | 9763 ft | 188 kts | 149° |
| 2026-04-23 01:08 | 4.66768 | -74.12847 | 10247 ft | 200 kts | 182° |
| 2026-04-23 01:09 | 4.65422 | -74.13246 | 10481 ft | 213 kts | 216° |
| 2026-04-23 01:09 | 4.64496 | -74.14450 | 10599 ft | 230 kts | 249° |
| 2026-04-23 01:09 | 4.63957 | -74.16032 | 10763 ft | 249 kts | 252° |
| 2026-04-23 01:09 | 4.63411 | -74.17755 | 10949 ft | 267 kts | 253° |
| 2026-04-23 01:10 | 4.62838 | -74.19557 | 11303 ft | 275 kts | 252° |
| 2026-04-23 01:10 | 4.62246 | -74.21388 | 11894 ft | 277 kts | 252° |
| 2026-04-23 01:10 | 4.61645 | -74.23229 | 12581 ft | 278 kts | 252° |
| 2026-04-23 01:10 | 4.61038 | -74.25076 | 13347 ft | 278 kts | 252° |
| 2026-04-23 01:11 | 4.60421 | -74.26934 | 13969 ft | 284 kts | 250° |
| 2026-04-23 01:11 | 4.59529 | -74.28708 | 14346 ft | 299 kts | 238° |
| 2026-04-23 01:11 | 4.58312 | -74.30499 | 14495 ft | 321 kts | 235° |
| 2026-04-23 01:11 | 4.56956 | -74.32372 | 14631 ft | 342 kts | 234° |
| 2026-04-23 01:12 | 4.55516 | -74.34355 | 14808 ft | 359 kts | 234° |
| 2026-04-23 01:12 | 4.54039 | -74.36412 | 15196 ft | 366 kts | 235° |
| 2026-04-23 01:12 | 4.52554 | -74.38507 | 15746 ft | 370 kts | 235° |
| 2026-04-23 01:12 | 4.51072 | -74.40620 | 16186 ft | 373 kts | 235° |
| 2026-04-23 01:13 | 4.49591 | -74.42742 | 16191 ft | 369 kts | 235° |
| 2026-04-23 01:13 | 4.48126 | -74.44849 | 16210 ft | 369 kts | 236° |
| 2026-04-23 01:13 | 4.46671 | -74.46946 | 16308 ft | 374 kts | 236° |
| 2026-04-23 01:13 | 4.45176 | -74.49100 | 16837 ft | 377 kts | 235° |
| 2026-04-23 01:14 | 4.43679 | -74.51256 | 17109 ft | 377 kts | 236° |
| 2026-04-23 01:14 | 4.42188 | -74.53405 | 17113 ft | 374 kts | 235° |
| 2026-04-23 01:14 | 4.40705 | -74.55541 | 17138 ft | 371 kts | 235° |
| 2026-04-23 01:14 | 4.39233 | -74.57661 | 17145 ft | 370 kts | 235° |
| 2026-04-23 01:15 | 4.37761 | -74.59781 | 17150 ft | 371 kts | 235° |
| 2026-04-23 01:15 | 4.36286 | -74.61906 | 17158 ft | 371 kts | 236° |
| 2026-04-23 01:15 | 4.34822 | -74.64046 | 17162 ft | 372 kts | 236° |
| 2026-04-23 01:15 | 4.33366 | -74.66190 | 17084 ft | 373 kts | 236° |
| 2026-04-23 01:16 | 4.31923 | -74.68313 | 17081 ft | 373 kts | 236° |
| 2026-04-23 01:16 | 4.30452 | -74.70453 | 17074 ft | 372 kts | 236° |
| 2026-04-23 01:16 | 4.28964 | -74.72590 | 17083 ft | 372 kts | 235° |
| 2026-04-23 01:16 | 4.27477 | -74.74718 | 17093 ft | 376 kts | 235° |
| 2026-04-23 01:17 | 4.25949 | -74.76906 | 17228 ft | 391 kts | 235° |
| 2026-04-23 01:17 | 4.24364 | -74.79180 | 17380 ft | 402 kts | 235° |
| 2026-04-23 01:17 | 4.22748 | -74.81501 | 17672 ft | 410 kts | 235° |
| 2026-04-23 01:17 | 4.21127 | -74.83829 | 18073 ft | 414 kts | 235° |
| 2026-04-23 01:18 | 4.19485 | -74.86194 | 18598 ft | 413 kts | 236° |
| 2026-04-23 01:18 | 4.18018 | -74.88652 | 19156 ft | 410 kts | 242° |
| 2026-04-23 01:18 | 4.16713 | -74.91181 | 19708 ft | 408 kts | 243° |
| 2026-04-23 01:18 | 4.15446 | -74.93725 | 20215 ft | 408 kts | 244° |
| 2026-04-23 01:19 | 4.14181 | -74.96277 | 20721 ft | 408 kts | 244° |
| 2026-04-23 01:19 | 4.12911 | -74.98820 | 21266 ft | 407 kts | 243° |
| 2026-04-23 01:19 | 4.11640 | -75.01343 | 21840 ft | 405 kts | 243° |
| 2026-04-23 01:19 | 4.10362 | -75.03862 | 22381 ft | 405 kts | 243° |
| 2026-04-23 01:20 | 4.09095 | -75.06347 | 22923 ft | 404 kts | 243° |
| 2026-04-23 01:20 | 4.07817 | -75.08848 | 23490 ft | 402 kts | 243° |
| 2026-04-23 01:20 | 4.06546 | -75.11332 | 23954 ft | 400 kts | 243° |
| 2026-04-23 01:20 | 4.05273 | -75.13817 | 24007 ft | 399 kts | 243° |
| 2026-04-23 01:21 | 4.04005 | -75.16294 | 24051 ft | 403 kts | 243° |
| 2026-04-23 01:21 | 4.02710 | -75.18824 | 24058 ft | 413 kts | 243° |
| 2026-04-23 01:21 | 4.01383 | -75.21417 | 24061 ft | 422 kts | 243° |
| 2026-04-23 01:21 | 4.00028 | -75.24063 | 24061 ft | 430 kts | 243° |
| 2026-04-23 01:22 | 3.98648 | -75.26759 | 24059 ft | 437 kts | 243° |
| 2026-04-23 01:22 | 3.97271 | -75.29449 | 24058 ft | 443 kts | 243° |
| 2026-04-23 01:22 | 3.95853 | -75.32217 | 24058 ft | 449 kts | 243° |
| 2026-04-23 01:22 | 3.94420 | -75.35015 | 24058 ft | 454 kts | 243° |
| 2026-04-23 01:23 | 3.92972 | -75.37842 | 24065 ft | 458 kts | 243° |
| 2026-04-23 01:23 | 3.91507 | -75.40704 | 24064 ft | 462 kts | 243° |
| 2026-04-23 01:23 | 3.90035 | -75.43577 | 24068 ft | 466 kts | 243° |
| 2026-04-23 01:23 | 3.88552 | -75.46473 | 24066 ft | 469 kts | 243° |
| 2026-04-23 01:24 | 3.87053 | -75.49398 | 24059 ft | 472 kts | 243° |
| 2026-04-23 01:24 | 3.85549 | -75.52325 | 24075 ft | 474 kts | 243° |
| 2026-04-23 01:24 | 3.84027 | -75.55276 | 24074 ft | 475 kts | 243° |
| 2026-04-23 01:24 | 3.82560 | -75.58116 | 24058 ft | 456 kts | 243° |
| 2026-04-23 01:25 | 3.81129 | -75.60887 | 24052 ft | 437 kts | 243° |
| 2026-04-23 01:25 | 3.79761 | -75.63535 | 24055 ft | 420 kts | 243° |
| 2026-04-23 01:25 | 3.78450 | -75.66077 | 24085 ft | 403 kts | 243° |
| 2026-04-23 01:25 | 3.77178 | -75.68542 | 23873 ft | 395 kts | 243° |
| 2026-04-23 01:26 | 3.75932 | -75.70959 | 23617 ft | 388 kts | 243° |
| 2026-04-23 01:26 | 3.74696 | -75.73356 | 23189 ft | 385 kts | 243° |
| 2026-04-23 01:26 | 3.73472 | -75.75731 | 22801 ft | 381 kts | 243° |
| 2026-04-23 01:26 | 3.72262 | -75.78077 | 22407 ft | 378 kts | 243° |
| 2026-04-23 01:27 | 3.71059 | -75.80406 | 22065 ft | 374 kts | 243° |
| 2026-04-23 01:27 | 3.69887 | -75.82681 | 21694 ft | 371 kts | 243° |
| 2026-04-23 01:27 | 3.68711 | -75.84974 | 21306 ft | 369 kts | 243° |
| 2026-04-23 01:27 | 3.67546 | -75.87250 | 20926 ft | 366 kts | 243° |
| 2026-04-23 01:28 | 3.66763 | -75.88781 | 20671 ft | 365 kts | 243° |
| 2026-04-23 01:28 | 3.65608 | -75.91037 | 20305 ft | 363 kts | 243° |
| 2026-04-23 01:28 | 3.64475 | -75.93249 | 19944 ft | 361 kts | 243° |
| 2026-04-23 01:28 | 3.63332 | -75.95481 | 19567 ft | 359 kts | 243° |
| 2026-04-23 01:29 | 3.62191 | -75.97710 | 19148 ft | 359 kts | 243° |
| 2026-04-23 01:29 | 3.61053 | -75.99931 | 18768 ft | 358 kts | 243° |
| 2026-04-23 01:29 | 3.59920 | -76.02142 | 18500 ft | 354 kts | 243° |
| 2026-04-23 01:29 | 3.58806 | -76.04317 | 18244 ft | 348 kts | 243° |
| 2026-04-23 01:30 | 3.57710 | -76.06455 | 18097 ft | 342 kts | 243° |
| 2026-04-23 01:30 | 3.56628 | -76.08567 | 18053 ft | 340 kts | 243° |
| 2026-04-23 01:30 | 3.55562 | -76.10644 | 18043 ft | 340 kts | 243° |
| 2026-04-23 01:30 | 3.54475 | -76.12757 | 18035 ft | 340 kts | 243° |
| 2026-04-23 01:31 | 3.53407 | -76.14834 | 17989 ft | 331 kts | 243° |
| 2026-04-23 01:31 | 3.52370 | -76.16849 | 17981 ft | 318 kts | 243° |
| 2026-04-23 01:31 | 3.51378 | -76.18774 | 17990 ft | 306 kts | 243° |
| 2026-04-23 01:31 | 3.50410 | -76.20647 | 17828 ft | 300 kts | 243° |
| 2026-04-23 01:32 | 3.49455 | -76.22494 | 17485 ft | 299 kts | 243° |
| 2026-04-23 01:32 | 3.48486 | -76.24370 | 16748 ft | 311 kts | 243° |
| 2026-04-23 01:32 | 3.47457 | -76.26351 | 15946 ft | 325 kts | 241° |
| 2026-04-23 01:32 | 3.46032 | -76.28088 | 15300 ft | 327 kts | 217° |
| 2026-04-23 01:33 | 3.43972 | -76.29011 | 15030 ft | 323 kts | 192° |
| 2026-04-23 01:33 | 3.41741 | -76.29070 | 14829 ft | 319 kts | 175° |
| 2026-04-23 01:33 | 3.39593 | -76.28870 | 14757 ft | 300 kts | 181° |
| 2026-04-23 01:33 | 3.37602 | -76.29071 | 14645 ft | 277 kts | 194° |
| 2026-04-23 01:34 | 3.35831 | -76.29647 | 14516 ft | 258 kts | 206° |
| 2026-04-23 01:34 | 3.34286 | -76.30431 | 14383 ft | 241 kts | 212° |
| 2026-04-23 01:34 | 3.32932 | -76.31347 | 14247 ft | 230 kts | 220° |
| 2026-04-23 01:34 | 3.31736 | -76.32410 | 14173 ft | 232 kts | 227° |
| 2026-04-23 01:35 | 3.30662 | -76.33665 | 14002 ft | 243 kts | 235° |
| 2026-04-23 01:35 | 3.29769 | -76.35072 | 13767 ft | 239 kts | 243° |
| 2026-04-23 01:35 | 3.29099 | -76.36559 | 13470 ft | 230 kts | 251° |
| 2026-04-23 01:35 | 3.28654 | -76.38062 | 13198 ft | 221 kts | 257° |
| 2026-04-23 01:36 | 3.28392 | -76.39540 | 12957 ft | 212 kts | 265° |
| 2026-04-23 01:36 | 3.28358 | -76.41000 | 12744 ft | 209 kts | 273° |
| 2026-04-23 01:36 | 3.28499 | -76.42451 | 12510 ft | 210 kts | 280° |
| 2026-04-23 01:36 | 3.29238 | -76.43704 | 12082 ft | 216 kts | 326° |
| 2026-04-23 01:37 | 3.30649 | -76.44036 | 11795 ft | 215 kts | 7° |
| 2026-04-23 01:37 | 3.31981 | -76.43311 | 11060 ft | 226 kts | 48° |
| 2026-04-23 01:37 | 3.33152 | -76.42276 | 10342 ft | 228 kts | 22° |
| 2026-04-23 01:37 | 3.34658 | -76.41824 | 9688 ft | 225 kts | 14° |
| 2026-04-23 01:38 | 3.36160 | -76.41462 | 8973 ft | 220 kts | 12° |
| 2026-04-23 01:38 | 3.36470 | -76.41393 | 8822 ft | 219 kts | 12° |
| 2026-04-23 01:38 | 3.36886 | -76.41304 | 8622 ft | 218 kts | 12° |
| 2026-04-23 01:38 | 3.37284 | -76.41222 | 8432 ft | 218 kts | 11° |
| 2026-04-23 01:39 | 3.38763 | -76.40927 | 7741 ft | 215 kts | 12° |
| 2026-04-23 01:39 | 3.40196 | -76.40593 | 7077 ft | 213 kts | 12° |
| 2026-04-23 01:39 | 3.41642 | -76.40306 | 6429 ft | 211 kts | 11° |
| 2026-04-23 01:39 | 3.43092 | -76.40093 | 5671 ft | 213 kts | 7° |
| 2026-04-23 01:40 | 3.44581 | -76.39892 | 5050 ft | 211 kts | 11° |
| 2026-04-23 01:40 | 3.45951 | -76.39592 | 4663 ft | 199 kts | 11° |
| 2026-04-23 01:40 | 3.47293 | -76.39350 | 4268 ft | 190 kts | 8° |
| 2026-04-23 01:40 | 3.48570 | -76.39180 | 3960 ft | 177 kts | 7° |
| 2026-04-23 01:41 | 3.49767 | -76.38948 | 3787 ft | 175 kts | 12° |
| 2026-04-23 01:41 | 3.50956 | -76.38737 | 3599 ft | 170 kts | 7° |
| 2026-04-23 01:41 | 3.52114 | -76.38562 | 3388 ft | 166 kts | 10° |
| 2026-04-23 01:41 | 3.53222 | -76.38362 | 3174 ft | 153 kts | 9° |
| 2026-04-23 01:42 | 3.54181 | -76.38192 | 3165 ft | 115 kts | 9° |
| 2026-04-23 01:42 | 3.54517 | -76.38136 | 3164 ft | 7 kts | 9° |
| 2026-04-23 01:42 | 3.54541 | -76.38132 | 3165 ft | 5 kts | 9° |
| 2026-04-23 01:42 | 3.54583 | -76.38154 | 3164 ft | 10 kts | 304° |
| 2026-04-23 01:43 | 3.54606 | -76.38231 | 3165 ft | 14 kts | 273° |
| 2026-04-23 01:43 | 3.54529 | -76.38294 | 3165 ft | 19 kts | 189° |
| 2026-04-23 01:43 | 3.54388 | -76.38318 | 3164 ft | 21 kts | 189° |
| 2026-04-23 01:43 | 3.54251 | -76.38341 | 3166 ft | 20 kts | 191° |
| 2026-04-23 01:44 | 3.54116 | -76.38367 | 3163 ft | 19 kts | 197° |
| 2026-04-23 01:44 | 3.54009 | -76.38443 | 3162 ft | 19 kts | 220° |
| 2026-04-23 01:44 | 3.53910 | -76.38526 | 3162 ft | 18 kts | 220° |
| 2026-04-23 01:44 | 3.53804 | -76.38581 | 3161 ft | 17 kts | 173° |
| 2026-04-23 01:45 | 3.53727 | -76.38559 | 3161 ft | 7 kts | 216° |
| 2026-04-23 01:45 | 3.53709 | -76.38600 | 3164 ft | 0 kts | 249° |